sensor_id;sensor_type;location;lat;lon;timestamp;P1;durP1;ratioP1;P2;durP2;ratioP2
62863;SDS011;48954;59.950;11.014;2022-10-18T00:00:00;11.30;;;4.90;;
62863;SDS011;48954;59.950;11.014;2022-10-18T00:02:49;10.70;;;5.20;;
62863;SDS011;48954;59.950;11.014;2022-10-18T00:05:18;11.70;;;5.40;;
62863;SDS011;48954;59.950;11.014;2022-10-18T00:07:45;10.60;;;5.50;;
62863;SDS011;48954;59.950;11.014;2022-10-18T00:10:12;12.70;;;5.10;;
62863;SDS011;48954;59.950;11.014;2022-10-18T00:12:44;9.50;;;4.60;;
62863;SDS011;48954;59.950;11.014;2022-10-18T00:15:10;8.80;;;4.60;;
62863;SDS011;48954;59.950;11.014;2022-10-18T00:17:37;9.60;;;4.70;;
62863;SDS011;48954;59.950;11.014;2022-10-18T00:20:04;7.50;;;4.00;;
62863;SDS011;48954;59.950;11.014;2022-10-18T00:22:33;8.50;;;4.30;;
62863;SDS011;48954;59.950;11.014;2022-10-18T00:25:01;10.30;;;5.20;;
62863;SDS011;48954;59.950;11.014;2022-10-18T00:27:28;10.20;;;5.10;;
62863;SDS011;48954;59.950;11.014;2022-10-18T00:29:55;11.20;;;5.70;;
62863;SDS011;48954;59.950;11.014;2022-10-18T00:32:21;11.70;;;5.60;;
62863;SDS011;48954;59.950;11.014;2022-10-18T00:34:49;7.30;;;3.90;;
62863;SDS011;48954;59.950;11.014;2022-10-18T00:37:20;10.00;;;4.90;;
62863;SDS011;48954;59.950;11.014;2022-10-18T00:39:48;10.10;;;4.80;;
62863;SDS011;48954;59.950;11.014;2022-10-18T00:42:17;10.50;;;5.30;;
62863;SDS011;48954;59.950;11.014;2022-10-18T00:47:12;10.20;;;4.60;;
62863;SDS011;48954;59.950;11.014;2022-10-18T00:49:41;8.50;;;4.40;;
62863;SDS011;48954;59.950;11.014;2022-10-18T00:52:17;10.60;;;4.80;;
62863;SDS011;48954;59.950;11.014;2022-10-18T00:54:45;10.80;;;4.70;;
62863;SDS011;48954;59.950;11.014;2022-10-18T00:57:14;11.00;;;5.40;;
62863;SDS011;48954;59.950;11.014;2022-10-18T00:59:42;10.80;;;5.10;;
62863;SDS011;48954;59.950;11.014;2022-10-18T01:02:10;12.70;;;5.80;;
62863;SDS011;48954;59.950;11.014;2022-10-18T01:04:36;13.00;;;6.10;;
62863;SDS011;48954;59.950;11.014;2022-10-18T01:15:56;10.00;;;4.90;;
62863;SDS011;48954;59.950;11.014;2022-10-18T01:18:39;12.40;;;6.30;;
62863;SDS011;48954;59.950;11.014;2022-10-18T01:29:19;16.40;;;7.90;;
62863;SDS011;48954;59.950;11.014;2022-10-18T01:31:50;13.80;;;7.10;;
62863;SDS011;48954;59.950;11.014;2022-10-18T01:34:23;14.70;;;7.40;;
62863;SDS011;48954;59.950;11.014;2022-10-18T01:36:54;14.00;;;6.90;;
62863;SDS011;48954;59.950;11.014;2022-10-18T01:39:29;16.10;;;6.70;;
62863;SDS011;48954;59.950;11.014;2022-10-18T01:42:00;21.50;;;8.10;;
62863;SDS011;48954;59.950;11.014;2022-10-18T01:44:30;15.90;;;7.20;;
62863;SDS011;48954;59.950;11.014;2022-10-18T01:46:58;18.50;;;8.00;;
62863;SDS011;48954;59.950;11.014;2022-10-18T01:49:25;16.30;;;7.40;;
62863;SDS011;48954;59.950;11.014;2022-10-18T01:51:52;15.70;;;7.50;;
62863;SDS011;48954;59.950;11.014;2022-10-18T01:54:28;16.40;;;8.50;;
62863;SDS011;48954;59.950;11.014;2022-10-18T02:11:08;12.60;;;5.40;;
62863;SDS011;48954;59.950;11.014;2022-10-18T02:13:41;12.90;;;6.00;;
62863;SDS011;48954;59.950;11.014;2022-10-18T02:16:48;14.20;;;6.20;;
62863;SDS011;48954;59.950;11.014;2022-10-18T02:21:52;15.20;;;6.80;;
62863;SDS011;48954;59.950;11.014;2022-10-18T02:24:25;11.50;;;5.40;;
62863;SDS011;48954;59.950;11.014;2022-10-18T02:26:56;12.50;;;5.40;;
62863;SDS011;48954;59.950;11.014;2022-10-18T02:29:24;10.70;;;5.50;;
62863;SDS011;48954;59.950;11.014;2022-10-18T02:31:54;13.40;;;6.30;;
62863;SDS011;48954;59.950;11.014;2022-10-18T02:34:30;13.00;;;5.50;;
62863;SDS011;48954;59.950;11.014;2022-10-18T02:37:01;11.30;;;5.30;;
62863;SDS011;48954;59.950;11.014;2022-10-18T02:39:30;11.50;;;5.00;;
62863;SDS011;48954;59.950;11.014;2022-10-18T02:42:04;13.10;;;5.40;;
62863;SDS011;48954;59.950;11.014;2022-10-18T02:44:32;12.40;;;5.70;;
62863;SDS011;48954;59.950;11.014;2022-10-18T02:47:13;13.30;;;5.50;;
62863;SDS011;48954;59.950;11.014;2022-10-18T02:49:40;12.40;;;5.80;;
62863;SDS011;48954;59.950;11.014;2022-10-18T02:52:06;12.40;;;5.80;;
62863;SDS011;48954;59.950;11.014;2022-10-18T02:54:33;11.50;;;5.40;;
62863;SDS011;48954;59.950;11.014;2022-10-18T02:57:07;12.50;;;5.90;;
62863;SDS011;48954;59.950;11.014;2022-10-18T02:59:43;13.20;;;6.20;;
62863;SDS011;48954;59.950;11.014;2022-10-18T03:02:09;15.80;;;6.80;;
62863;SDS011;48954;59.950;11.014;2022-10-18T03:04:35;14.10;;;6.80;;
62863;SDS011;48954;59.950;11.014;2022-10-18T03:07:01;15.70;;;6.80;;
62863;SDS011;48954;59.950;11.014;2022-10-18T03:09:28;13.10;;;6.00;;
62863;SDS011;48954;59.950;11.014;2022-10-18T03:11:54;12.40;;;5.80;;
62863;SDS011;48954;59.950;11.014;2022-10-18T03:14:21;16.10;;;6.20;;
62863;SDS011;48954;59.950;11.014;2022-10-18T03:16:48;14.60;;;6.40;;
62863;SDS011;48954;59.950;11.014;2022-10-18T03:19:15;19.30;;;7.40;;
62863;SDS011;48954;59.950;11.014;2022-10-18T03:21:42;12.90;;;6.40;;
62863;SDS011;48954;59.950;11.014;2022-10-18T03:24:08;15.90;;;8.20;;
62863;SDS011;48954;59.950;11.014;2022-10-18T03:26:36;15.50;;;7.10;;
62863;SDS011;48954;59.950;11.014;2022-10-18T03:29:03;12.90;;;6.60;;
62863;SDS011;48954;59.950;11.014;2022-10-18T03:31:29;12.50;;;5.50;;
62863;SDS011;48954;59.950;11.014;2022-10-18T03:33:56;15.10;;;7.20;;
62863;SDS011;48954;59.950;11.014;2022-10-18T03:36:23;11.40;;;6.00;;
62863;SDS011;48954;59.950;11.014;2022-10-18T03:38:49;13.20;;;6.50;;
62863;SDS011;48954;59.950;11.014;2022-10-18T03:41:15;13.60;;;7.40;;
62863;SDS011;48954;59.950;11.014;2022-10-18T03:43:41;11.90;;;5.90;;
62863;SDS011;48954;59.950;11.014;2022-10-18T03:46:07;13.80;;;6.30;;
62863;SDS011;48954;59.950;11.014;2022-10-18T03:48:33;14.30;;;6.40;;
62863;SDS011;48954;59.950;11.014;2022-10-18T03:51:00;13.20;;;6.10;;
62863;SDS011;48954;59.950;11.014;2022-10-18T03:53:28;12.40;;;6.00;;
62863;SDS011;48954;59.950;11.014;2022-10-18T03:55:55;11.70;;;6.40;;
62863;SDS011;48954;59.950;11.014;2022-10-18T03:58:21;9.10;;;4.80;;
62863;SDS011;48954;59.950;11.014;2022-10-18T04:00:52;10.20;;;5.10;;
62863;SDS011;48954;59.950;11.014;2022-10-18T04:03:21;12.80;;;6.40;;
62863;SDS011;48954;59.950;11.014;2022-10-18T04:05:48;10.80;;;5.50;;
62863;SDS011;48954;59.950;11.014;2022-10-18T04:08:16;12.60;;;5.70;;
62863;SDS011;48954;59.950;11.014;2022-10-18T04:10:43;10.10;;;4.80;;
62863;SDS011;48954;59.950;11.014;2022-10-18T04:13:09;10.70;;;4.90;;
62863;SDS011;48954;59.950;11.014;2022-10-18T04:15:35;10.30;;;5.00;;
62863;SDS011;48954;59.950;11.014;2022-10-18T04:18:02;11.50;;;5.20;;
62863;SDS011;48954;59.950;11.014;2022-10-18T04:20:28;10.70;;;4.10;;
62863;SDS011;48954;59.950;11.014;2022-10-18T04:22:54;11.10;;;4.90;;
62863;SDS011;48954;59.950;11.014;2022-10-18T04:25:20;11.00;;;5.20;;
62863;SDS011;48954;59.950;11.014;2022-10-18T04:27:48;8.40;;;4.20;;
62863;SDS011;48954;59.950;11.014;2022-10-18T04:30:15;9.30;;;4.20;;
62863;SDS011;48954;59.950;11.014;2022-10-18T04:32:55;8.90;;;4.80;;
62863;SDS011;48954;59.950;11.014;2022-10-18T04:35:25;9.60;;;4.40;;
62863;SDS011;48954;59.950;11.014;2022-10-18T04:37:51;9.20;;;4.90;;
62863;SDS011;48954;59.950;11.014;2022-10-18T04:40:17;8.70;;;4.40;;
62863;SDS011;48954;59.950;11.014;2022-10-18T04:42:47;7.40;;;3.80;;
62863;SDS011;48954;59.950;11.014;2022-10-18T04:45:13;6.40;;;3.10;;
62863;SDS011;48954;59.950;11.014;2022-10-18T04:47:40;7.70;;;3.80;;
62863;SDS011;48954;59.950;11.014;2022-10-18T04:50:06;7.50;;;4.00;;
62863;SDS011;48954;59.950;11.014;2022-10-18T04:52:32;7.00;;;4.00;;
62863;SDS011;48954;59.950;11.014;2022-10-18T04:54:58;7.20;;;3.50;;
62863;SDS011;48954;59.950;11.014;2022-10-18T04:57:25;6.90;;;3.60;;
62863;SDS011;48954;59.950;11.014;2022-10-18T04:59:51;9.20;;;4.60;;
62863;SDS011;48954;59.950;11.014;2022-10-18T05:02:17;11.10;;;4.90;;
62863;SDS011;48954;59.950;11.014;2022-10-18T05:04:42;12.40;;;5.90;;
62863;SDS011;48954;59.950;11.014;2022-10-18T05:07:08;12.30;;;5.50;;
62863;SDS011;48954;59.950;11.014;2022-10-18T05:09:34;10.90;;;5.70;;
62863;SDS011;48954;59.950;11.014;2022-10-18T05:12:00;13.70;;;6.50;;
62863;SDS011;48954;59.950;11.014;2022-10-18T05:14:26;12.50;;;6.00;;
62863;SDS011;48954;59.950;11.014;2022-10-18T05:16:52;10.10;;;5.50;;
62863;SDS011;48954;59.950;11.014;2022-10-18T05:19:17;7.90;;;4.30;;
62863;SDS011;48954;59.950;11.014;2022-10-18T05:21:44;13.50;;;5.80;;
62863;SDS011;48954;59.950;11.014;2022-10-18T05:24:18;19.80;;;8.90;;
62863;SDS011;48954;59.950;11.014;2022-10-18T05:29:09;21.30;;;10.90;;
62863;SDS011;48954;59.950;11.014;2022-10-18T05:31:36;24.40;;;11.90;;
62863;SDS011;48954;59.950;11.014;2022-10-18T05:34:02;15.20;;;8.00;;
62863;SDS011;48954;59.950;11.014;2022-10-18T05:36:28;16.80;;;8.50;;
62863;SDS011;48954;59.950;11.014;2022-10-18T05:38:54;16.90;;;7.90;;
62863;SDS011;48954;59.950;11.014;2022-10-18T05:41:20;16.80;;;8.20;;
62863;SDS011;48954;59.950;11.014;2022-10-18T05:43:52;13.20;;;7.00;;
62863;SDS011;48954;59.950;11.014;2022-10-18T05:46:18;15.80;;;7.70;;
62863;SDS011;48954;59.950;11.014;2022-10-18T05:48:47;16.50;;;8.40;;
62863;SDS011;48954;59.950;11.014;2022-10-18T05:51:14;14.50;;;7.80;;
62863;SDS011;48954;59.950;11.014;2022-10-18T05:53:40;14.60;;;7.00;;
62863;SDS011;48954;59.950;11.014;2022-10-18T05:56:06;17.90;;;8.60;;
62863;SDS011;48954;59.950;11.014;2022-10-18T05:58:33;19.30;;;8.90;;
62863;SDS011;48954;59.950;11.014;2022-10-18T06:01:00;19.80;;;9.20;;
62863;SDS011;48954;59.950;11.014;2022-10-18T06:03:29;14.50;;;7.50;;
62863;SDS011;48954;59.950;11.014;2022-10-18T06:05:59;15.70;;;7.80;;
62863;SDS011;48954;59.950;11.014;2022-10-18T06:08:26;16.10;;;8.30;;
62863;SDS011;48954;59.950;11.014;2022-10-18T06:10:53;13.10;;;7.20;;
62863;SDS011;48954;59.950;11.014;2022-10-18T06:13:19;11.40;;;6.10;;
62863;SDS011;48954;59.950;11.014;2022-10-18T06:15:47;15.90;;;7.90;;
62863;SDS011;48954;59.950;11.014;2022-10-18T06:18:12;13.80;;;6.30;;
62863;SDS011;48954;59.950;11.014;2022-10-18T06:20:39;13.60;;;6.20;;
62863;SDS011;48954;59.950;11.014;2022-10-18T06:23:06;11.80;;;5.60;;
62863;SDS011;48954;59.950;11.014;2022-10-18T06:25:35;12.10;;;5.60;;
62863;SDS011;48954;59.950;11.014;2022-10-18T06:28:04;14.70;;;7.40;;
62863;SDS011;48954;59.950;11.014;2022-10-18T06:30:30;14.40;;;7.20;;
62863;SDS011;48954;59.950;11.014;2022-10-18T06:33:00;16.90;;;8.20;;
62863;SDS011;48954;59.950;11.014;2022-10-18T06:35:37;17.80;;;7.80;;
62863;SDS011;48954;59.950;11.014;2022-10-18T06:38:23;18.30;;;8.50;;
62863;SDS011;48954;59.950;11.014;2022-10-18T06:40:50;17.30;;;7.30;;
62863;SDS011;48954;59.950;11.014;2022-10-18T06:43:19;12.10;;;6.80;;
62863;SDS011;48954;59.950;11.014;2022-10-18T06:46:40;10.60;;;5.30;;
62863;SDS011;48954;59.950;11.014;2022-10-18T06:49:12;11.30;;;5.10;;
62863;SDS011;48954;59.950;11.014;2022-10-18T06:51:53;11.30;;;5.70;;
62863;SDS011;48954;59.950;11.014;2022-10-18T06:54:19;14.00;;;4.90;;
62863;SDS011;48954;59.950;11.014;2022-10-18T06:56:49;25.00;;;11.00;;
62863;SDS011;48954;59.950;11.014;2022-10-18T06:59:15;17.10;;;7.80;;
62863;SDS011;48954;59.950;11.014;2022-10-18T07:01:42;19.00;;;8.20;;
62863;SDS011;48954;59.950;11.014;2022-10-18T07:04:11;14.20;;;6.50;;
62863;SDS011;48954;59.950;11.014;2022-10-18T07:06:37;15.30;;;7.50;;
62863;SDS011;48954;59.950;11.014;2022-10-18T07:09:04;14.70;;;7.20;;
62863;SDS011;48954;59.950;11.014;2022-10-18T07:11:30;16.70;;;6.70;;
62863;SDS011;48954;59.950;11.014;2022-10-18T07:13:59;14.00;;;6.60;;
62863;SDS011;48954;59.950;11.014;2022-10-18T07:16:28;18.00;;;7.20;;
62863;SDS011;48954;59.950;11.014;2022-10-18T07:18:54;20.40;;;8.60;;
62863;SDS011;48954;59.950;11.014;2022-10-18T07:21:21;16.00;;;6.60;;
62863;SDS011;48954;59.950;11.014;2022-10-18T07:23:49;22.80;;;9.70;;
62863;SDS011;48954;59.950;11.014;2022-10-18T07:26:22;16.90;;;6.80;;
62863;SDS011;48954;59.950;11.014;2022-10-18T07:28:59;17.10;;;7.70;;
62863;SDS011;48954;59.950;11.014;2022-10-18T07:31:29;23.90;;;10.40;;
62863;SDS011;48954;59.950;11.014;2022-10-18T07:33:58;18.10;;;7.80;;
62863;SDS011;48954;59.950;11.014;2022-10-18T07:36:24;19.00;;;8.30;;
62863;SDS011;48954;59.950;11.014;2022-10-18T07:38:52;15.30;;;6.50;;
62863;SDS011;48954;59.950;11.014;2022-10-18T07:41:21;18.60;;;7.50;;
62863;SDS011;48954;59.950;11.014;2022-10-18T07:43:48;17.70;;;7.60;;
62863;SDS011;48954;59.950;11.014;2022-10-18T07:46:16;15.90;;;6.60;;
62863;SDS011;48954;59.950;11.014;2022-10-18T07:48:43;12.20;;;6.30;;
62863;SDS011;48954;59.950;11.014;2022-10-18T07:51:10;16.70;;;7.10;;
62863;SDS011;48954;59.950;11.014;2022-10-18T07:53:37;10.50;;;5.50;;
62863;SDS011;48954;59.950;11.014;2022-10-18T07:56:05;14.90;;;7.10;;
62863;SDS011;48954;59.950;11.014;2022-10-18T07:58:33;7.70;;;4.20;;
62863;SDS011;48954;59.950;11.014;2022-10-18T08:01:04;6.60;;;4.00;;
62863;SDS011;48954;59.950;11.014;2022-10-18T08:03:35;6.60;;;3.10;;
62863;SDS011;48954;59.950;11.014;2022-10-18T08:06:04;10.40;;;4.90;;
62863;SDS011;48954;59.950;11.014;2022-10-18T08:08:31;8.50;;;4.00;;
62863;SDS011;48954;59.950;11.014;2022-10-18T08:11:05;7.50;;;3.90;;
62863;SDS011;48954;59.950;11.014;2022-10-18T08:13:34;7.40;;;4.00;;
62863;SDS011;48954;59.950;11.014;2022-10-18T08:16:01;8.90;;;4.20;;
62863;SDS011;48954;59.950;11.014;2022-10-18T08:18:30;9.50;;;4.30;;
62863;SDS011;48954;59.950;11.014;2022-10-18T08:20:59;14.00;;;6.10;;
62863;SDS011;48954;59.950;11.014;2022-10-18T08:23:26;12.00;;;5.00;;
62863;SDS011;48954;59.950;11.014;2022-10-18T08:25:52;13.20;;;5.60;;
62863;SDS011;48954;59.950;11.014;2022-10-18T08:28:18;15.10;;;5.80;;
62863;SDS011;48954;59.950;11.014;2022-10-18T08:30:44;11.20;;;5.80;;
62863;SDS011;48954;59.950;11.014;2022-10-18T08:33:11;15.40;;;6.10;;
62863;SDS011;48954;59.950;11.014;2022-10-18T08:35:37;14.90;;;6.10;;
62863;SDS011;48954;59.950;11.014;2022-10-18T08:38:04;15.70;;;7.10;;
62863;SDS011;48954;59.950;11.014;2022-10-18T08:40:30;17.00;;;7.30;;
62863;SDS011;48954;59.950;11.014;2022-10-18T08:43:05;16.30;;;6.90;;
62863;SDS011;48954;59.950;11.014;2022-10-18T08:45:55;19.30;;;6.90;;
62863;SDS011;48954;59.950;11.014;2022-10-18T08:48:44;21.00;;;7.40;;
62863;SDS011;48954;59.950;11.014;2022-10-18T08:54:14;23.00;;;7.80;;
62863;SDS011;48954;59.950;11.014;2022-10-18T08:56:48;23.60;;;9.50;;
62863;SDS011;48954;59.950;11.014;2022-10-18T08:59:24;23.70;;;9.50;;
62863;SDS011;48954;59.950;11.014;2022-10-18T09:02:04;17.00;;;7.10;;
62863;SDS011;48954;59.950;11.014;2022-10-18T09:20:49;12.90;;;4.90;;
62863;SDS011;48954;59.950;11.014;2022-10-18T09:26:27;18.20;;;6.00;;
62863;SDS011;48954;59.950;11.014;2022-10-18T09:29:05;13.20;;;5.90;;
62863;SDS011;48954;59.950;11.014;2022-10-18T09:34:27;11.70;;;5.00;;
62863;SDS011;48954;59.950;11.014;2022-10-18T09:36:59;11.50;;;3.80;;
62863;SDS011;48954;59.950;11.014;2022-10-18T09:39:29;8.80;;;4.10;;
62863;SDS011;48954;59.950;11.014;2022-10-18T09:41:59;6.70;;;3.00;;
62863;SDS011;48954;59.950;11.014;2022-10-18T09:44:52;7.30;;;3.00;;
62863;SDS011;48954;59.950;11.014;2022-10-18T09:47:32;8.20;;;3.60;;
62863;SDS011;48954;59.950;11.014;2022-10-18T09:50:33;8.70;;;3.60;;
62863;SDS011;48954;59.950;11.014;2022-10-18T09:55:48;7.20;;;2.70;;
62863;SDS011;48954;59.950;11.014;2022-10-18T09:58:37;8.20;;;2.80;;
62863;SDS011;48954;59.950;11.014;2022-10-18T10:01:07;5.30;;;3.10;;
62863;SDS011;48954;59.950;11.014;2022-10-18T10:03:36;5.50;;;2.50;;
62863;SDS011;48954;59.950;11.014;2022-10-18T10:06:28;5.80;;;3.30;;
62863;SDS011;48954;59.950;11.014;2022-10-18T10:08:58;6.40;;;3.20;;
62863;SDS011;48954;59.950;11.014;2022-10-18T10:14:22;5.20;;;3.00;;
62863;SDS011;48954;59.950;11.014;2022-10-18T10:19:32;4.50;;;2.20;;
62863;SDS011;48954;59.950;11.014;2022-10-18T10:22:08;7.10;;;2.90;;
62863;SDS011;48954;59.950;11.014;2022-10-18T10:27:14;4.70;;;2.50;;
62863;SDS011;48954;59.950;11.014;2022-10-18T10:32:18;5.10;;;2.70;;
62863;SDS011;48954;59.950;11.014;2022-10-18T10:34:51;4.10;;;2.60;;
62863;SDS011;48954;59.950;11.014;2022-10-18T10:43:02;2.90;;;1.70;;
62863;SDS011;48954;59.950;11.014;2022-10-18T10:45:36;2.50;;;1.30;;
62863;SDS011;48954;59.950;11.014;2022-10-18T10:48:27;2.20;;;1.10;;
62863;SDS011;48954;59.950;11.014;2022-10-18T10:50:59;4.30;;;1.60;;
62863;SDS011;48954;59.950;11.014;2022-10-18T10:56:19;4.40;;;1.60;;
62863;SDS011;48954;59.950;11.014;2022-10-18T10:59:12;2.80;;;1.50;;
62863;SDS011;48954;59.950;11.014;2022-10-18T11:04:49;3.10;;;1.00;;
62863;SDS011;48954;59.950;11.014;2022-10-18T11:10:15;3.50;;;1.10;;
62863;SDS011;48954;59.950;11.014;2022-10-18T11:16:11;1.80;;;0.80;;
62863;SDS011;48954;59.950;11.014;2022-10-18T11:18:42;1.60;;;0.90;;
62863;SDS011;48954;59.950;11.014;2022-10-18T11:21:16;1.60;;;0.60;;
62863;SDS011;48954;59.950;11.014;2022-10-18T11:24:01;1.10;;;0.60;;
62863;SDS011;48954;59.950;11.014;2022-10-18T11:29:05;1.50;;;0.60;;
62863;SDS011;48954;59.950;11.014;2022-10-18T11:34:31;1.10;;;0.50;;
62863;SDS011;48954;59.950;11.014;2022-10-18T11:55:13;1.10;;;0.50;;
62863;SDS011;48954;59.950;11.014;2022-10-18T12:00:45;1.00;;;0.50;;
62863;SDS011;48954;59.950;11.014;2022-10-18T12:05:51;2.10;;;0.60;;
62863;SDS011;48954;59.950;11.014;2022-10-18T12:08:25;1.20;;;0.40;;
62863;SDS011;48954;59.950;11.014;2022-10-18T12:10:58;1.30;;;0.70;;
62863;SDS011;48954;59.950;11.014;2022-10-18T12:13:52;0.80;;;0.40;;
62863;SDS011;48954;59.950;11.014;2022-10-18T12:16:28;1.40;;;0.60;;
62863;SDS011;48954;59.950;11.014;2022-10-18T12:18:59;3.30;;;0.60;;
62863;SDS011;48954;59.950;11.014;2022-10-18T12:21:30;1.50;;;0.60;;
62863;SDS011;48954;59.950;11.014;2022-10-18T12:24:02;1.90;;;0.60;;
62863;SDS011;48954;59.950;11.014;2022-10-18T12:26:45;1.10;;;0.40;;
62863;SDS011;48954;59.950;11.014;2022-10-18T12:31:52;0.80;;;0.50;;
62863;SDS011;48954;59.950;11.014;2022-10-18T12:34:31;1.00;;;0.60;;
62863;SDS011;48954;59.950;11.014;2022-10-18T12:40:03;1.40;;;0.60;;
62863;SDS011;48954;59.950;11.014;2022-10-18T12:42:40;1.80;;;0.50;;
62863;SDS011;48954;59.950;11.014;2022-10-18T12:47:38;1.50;;;0.40;;
62863;SDS011;48954;59.950;11.014;2022-10-18T12:50:06;1.80;;;0.50;;
62863;SDS011;48954;59.950;11.014;2022-10-18T12:53:23;1.20;;;0.40;;
62863;SDS011;48954;59.950;11.014;2022-10-18T12:55:49;0.70;;;0.50;;
62863;SDS011;48954;59.950;11.014;2022-10-18T12:58:21;2.40;;;0.70;;
62863;SDS011;48954;59.950;11.014;2022-10-18T13:00:56;1.40;;;0.60;;
62863;SDS011;48954;59.950;11.014;2022-10-18T13:05:54;1.00;;;0.40;;
62863;SDS011;48954;59.950;11.014;2022-10-18T13:08:46;0.90;;;0.40;;
62863;SDS011;48954;59.950;11.014;2022-10-18T13:11:48;1.90;;;0.50;;
62863;SDS011;48954;59.950;11.014;2022-10-18T13:17:06;1.10;;;0.50;;
62863;SDS011;48954;59.950;11.014;2022-10-18T13:19:58;0.50;;;0.30;;
62863;SDS011;48954;59.950;11.014;2022-10-18T13:25:26;1.00;;;0.60;;
62863;SDS011;48954;59.950;11.014;2022-10-18T13:28:14;0.90;;;0.40;;
62863;SDS011;48954;59.950;11.014;2022-10-18T13:30:56;3.20;;;0.50;;
62863;SDS011;48954;59.950;11.014;2022-10-18T13:37:00;1.40;;;0.40;;
62863;SDS011;48954;59.950;11.014;2022-10-18T13:39:29;1.30;;;0.50;;
62863;SDS011;48954;59.950;11.014;2022-10-18T14:11:07;3.30;;;1.20;;
62863;SDS011;48954;59.950;11.014;2022-10-18T14:26:13;1.50;;;0.50;;
62863;SDS011;48954;59.950;11.014;2022-10-18T14:29:04;0.90;;;0.50;;
62863;SDS011;48954;59.950;11.014;2022-10-18T14:31:52;3.30;;;0.80;;
62863;SDS011;48954;59.950;11.014;2022-10-18T14:34:19;3.90;;;0.70;;
62863;SDS011;48954;59.950;11.014;2022-10-18T14:36:50;2.30;;;0.80;;
62863;SDS011;48954;59.950;11.014;2022-10-18T14:39:25;3.40;;;0.80;;
62863;SDS011;48954;59.950;11.014;2022-10-18T14:41:55;2.40;;;0.70;;
62863;SDS011;48954;59.950;11.014;2022-10-18T14:44:26;2.70;;;0.90;;
62863;SDS011;48954;59.950;11.014;2022-10-18T14:47:19;3.30;;;1.10;;
62863;SDS011;48954;59.950;11.014;2022-10-18T14:50:02;3.20;;;1.00;;
62863;SDS011;48954;59.950;11.014;2022-10-18T14:52:31;3.90;;;0.80;;
62863;SDS011;48954;59.950;11.014;2022-10-18T14:55:23;3.30;;;1.20;;
62863;SDS011;48954;59.950;11.014;2022-10-18T14:57:51;1.90;;;0.90;;
62863;SDS011;48954;59.950;11.014;2022-10-18T15:00:37;2.30;;;1.00;;
62863;SDS011;48954;59.950;11.014;2022-10-18T15:03:21;1.50;;;0.90;;
62863;SDS011;48954;59.950;11.014;2022-10-18T15:05:56;2.60;;;1.00;;
62863;SDS011;48954;59.950;11.014;2022-10-18T15:08:40;1.90;;;1.00;;
62863;SDS011;48954;59.950;11.014;2022-10-18T15:11:32;4.50;;;1.10;;
62863;SDS011;48954;59.950;11.014;2022-10-18T15:14:04;1.80;;;1.00;;
62863;SDS011;48954;59.950;11.014;2022-10-18T15:16:40;4.50;;;1.00;;
62863;SDS011;48954;59.950;11.014;2022-10-18T15:22:09;3.20;;;1.20;;
62863;SDS011;48954;59.950;11.014;2022-10-18T15:24:36;2.40;;;1.20;;
62863;SDS011;48954;59.950;11.014;2022-10-18T15:27:43;3.30;;;1.70;;
62863;SDS011;48954;59.950;11.014;2022-10-18T15:30:50;4.30;;;1.50;;
62863;SDS011;48954;59.950;11.014;2022-10-18T15:33:34;1.90;;;1.10;;
62863;SDS011;48954;59.950;11.014;2022-10-18T15:36:25;2.70;;;1.10;;
62863;SDS011;48954;59.950;11.014;2022-10-18T15:39:27;2.70;;;1.40;;
62863;SDS011;48954;59.950;11.014;2022-10-18T15:42:33;3.90;;;1.80;;
62863;SDS011;48954;59.950;11.014;2022-10-18T15:53:51;4.70;;;2.50;;
62863;SDS011;48954;59.950;11.014;2022-10-18T15:56:36;5.50;;;2.30;;
62863;SDS011;48954;59.950;11.014;2022-10-18T15:59:23;7.90;;;4.60;;
62863;SDS011;48954;59.950;11.014;2022-10-18T16:02:27;4.10;;;2.50;;
62863;SDS011;48954;59.950;11.014;2022-10-18T16:05:12;3.80;;;1.70;;
62863;SDS011;48954;59.950;11.014;2022-10-18T16:08:36;3.10;;;1.80;;
62863;SDS011;48954;59.950;11.014;2022-10-18T16:14:13;4.90;;;2.50;;
62863;SDS011;48954;59.950;11.014;2022-10-18T16:16:56;5.30;;;3.10;;
62863;SDS011;48954;59.950;11.014;2022-10-18T16:19:43;5.90;;;2.90;;
62863;SDS011;48954;59.950;11.014;2022-10-18T16:22:27;5.00;;;3.30;;
62863;SDS011;48954;59.950;11.014;2022-10-18T16:25:49;6.60;;;3.60;;
62863;SDS011;48954;59.950;11.014;2022-10-18T16:28:36;6.60;;;3.50;;
62863;SDS011;48954;59.950;11.014;2022-10-18T16:31:38;7.90;;;3.30;;
62863;SDS011;48954;59.950;11.014;2022-10-18T16:34:07;6.80;;;3.10;;
62863;SDS011;48954;59.950;11.014;2022-10-18T16:36:51;6.00;;;3.30;;
62863;SDS011;48954;59.950;11.014;2022-10-18T16:39:18;9.20;;;3.80;;
62863;SDS011;48954;59.950;11.014;2022-10-18T16:41:46;8.60;;;3.60;;
62863;SDS011;48954;59.950;11.014;2022-10-18T16:44:13;12.20;;;5.50;;
62863;SDS011;48954;59.950;11.014;2022-10-18T16:46:40;9.60;;;4.70;;
62863;SDS011;48954;59.950;11.014;2022-10-18T16:49:11;7.60;;;4.10;;
62863;SDS011;48954;59.950;11.014;2022-10-18T16:51:46;7.30;;;4.10;;
62863;SDS011;48954;59.950;11.014;2022-10-18T16:54:12;8.20;;;4.80;;
62863;SDS011;48954;59.950;11.014;2022-10-18T16:56:38;8.60;;;5.00;;
62863;SDS011;48954;59.950;11.014;2022-10-18T16:59:04;8.00;;;5.50;;
62863;SDS011;48954;59.950;11.014;2022-10-18T17:01:30;9.40;;;5.20;;
62863;SDS011;48954;59.950;11.014;2022-10-18T17:03:56;9.00;;;4.70;;
62863;SDS011;48954;59.950;11.014;2022-10-18T17:08:50;6.70;;;4.30;;
62863;SDS011;48954;59.950;11.014;2022-10-18T17:11:18;7.10;;;4.30;;
62863;SDS011;48954;59.950;11.014;2022-10-18T17:13:45;7.50;;;4.10;;
62863;SDS011;48954;59.950;11.014;2022-10-18T17:18:52;6.90;;;3.70;;
62863;SDS011;48954;59.950;11.014;2022-10-18T17:21:19;9.10;;;4.60;;
62863;SDS011;48954;59.950;11.014;2022-10-18T17:23:45;10.00;;;5.80;;
62863;SDS011;48954;59.950;11.014;2022-10-18T17:26:15;7.20;;;4.50;;
62863;SDS011;48954;59.950;11.014;2022-10-18T17:28:43;8.90;;;4.50;;
62863;SDS011;48954;59.950;11.014;2022-10-18T17:31:09;8.00;;;4.60;;
62863;SDS011;48954;59.950;11.014;2022-10-18T17:33:35;14.30;;;9.20;;
62863;SDS011;48954;59.950;11.014;2022-10-18T17:36:01;11.40;;;6.70;;
62863;SDS011;48954;59.950;11.014;2022-10-18T17:38:30;12.90;;;7.00;;
62863;SDS011;48954;59.950;11.014;2022-10-18T17:40:56;12.20;;;7.20;;
62863;SDS011;48954;59.950;11.014;2022-10-18T17:43:22;21.70;;;11.50;;
62863;SDS011;48954;59.950;11.014;2022-10-18T17:45:53;25.00;;;14.90;;
62863;SDS011;48954;59.950;11.014;2022-10-18T17:48:34;15.70;;;9.40;;
62863;SDS011;48954;59.950;11.014;2022-10-18T17:51:05;22.00;;;11.50;;
62863;SDS011;48954;59.950;11.014;2022-10-18T17:53:33;23.50;;;12.80;;
62863;SDS011;48954;59.950;11.014;2022-10-18T17:56:00;26.90;;;13.80;;
62863;SDS011;48954;59.950;11.014;2022-10-18T17:58:33;22.70;;;12.70;;
62863;SDS011;48954;59.950;11.014;2022-10-18T18:01:16;24.10;;;12.30;;
62863;SDS011;48954;59.950;11.014;2022-10-18T18:04:05;19.40;;;11.10;;
62863;SDS011;48954;59.950;11.014;2022-10-18T18:06:32;21.90;;;11.70;;
62863;SDS011;48954;59.950;11.014;2022-10-18T18:09:06;21.60;;;11.60;;
62863;SDS011;48954;59.950;11.014;2022-10-18T18:11:41;20.40;;;11.10;;
62863;SDS011;48954;59.950;11.014;2022-10-18T18:14:09;20.60;;;11.50;;
62863;SDS011;48954;59.950;11.014;2022-10-18T18:16:39;23.00;;;12.60;;
62863;SDS011;48954;59.950;11.014;2022-10-18T18:19:07;21.20;;;10.20;;
62863;SDS011;48954;59.950;11.014;2022-10-18T18:21:36;22.40;;;10.80;;